sensor_id;sensor_type;location;lat;lon;timestamp;P1;durP1;ratioP1;P2;durP2;ratioP2
19257;SDS011;9763;48.780;9.212;2023-05-07T00:00:41;2.10;;;1.80;;
19257;SDS011;9763;48.780;9.212;2023-05-07T00:04:06;2.10;;;1.70;;
19257;SDS011;9763;48.780;9.212;2023-05-07T00:07:30;2.50;;;1.70;;
19257;SDS011;9763;48.780;9.212;2023-05-07T00:10:55;1.97;;;1.67;;
19257;SDS011;9763;48.780;9.212;2023-05-07T00:14:20;2.10;;;1.80;;
19257;SDS011;9763;48.780;9.212;2023-05-07T00:17:44;1.90;;;1.70;;
19257;SDS011;9763;48.780;9.212;2023-05-07T00:21:08;3.40;;;1.67;;
19257;SDS011;9763;48.780;9.212;2023-05-07T00:24:33;3.90;;;1.87;;
19257;SDS011;9763;48.780;9.212;2023-05-07T00:27:56;3.60;;;1.70;;
19257;SDS011;9763;48.780;9.212;2023-05-07T00:31:26;2.40;;;1.80;;
19257;SDS011;9763;48.780;9.212;2023-05-07T00:34:50;3.83;;;2.13;;
19257;SDS011;9763;48.780;9.212;2023-05-07T00:38:14;2.10;;;1.90;;
19257;SDS011;9763;48.780;9.212;2023-05-07T00:41:38;2.00;;;1.80;;
19257;SDS011;9763;48.780;9.212;2023-05-07T00:45:01;3.27;;;2.30;;
19257;SDS011;9763;48.780;9.212;2023-05-07T00:48:27;2.40;;;1.80;;
19257;SDS011;9763;48.780;9.212;2023-05-07T00:51:51;2.10;;;1.70;;
19257;SDS011;9763;48.780;9.212;2023-05-07T00:55:14;2.33;;;2.13;;
19257;SDS011;9763;48.780;9.212;2023-05-07T00:58:38;2.77;;;2.17;;
19257;SDS011;9763;48.780;9.212;2023-05-07T01:02:03;2.33;;;2.07;;
19257;SDS011;9763;48.780;9.212;2023-05-07T01:05:28;2.83;;;1.80;;
19257;SDS011;9763;48.780;9.212;2023-05-07T01:08:53;2.10;;;1.90;;
19257;SDS011;9763;48.780;9.212;2023-05-07T01:12:18;1.83;;;1.40;;
19257;SDS011;9763;48.780;9.212;2023-05-07T01:15:42;2.30;;;1.80;;
19257;SDS011;9763;48.780;9.212;2023-05-07T01:19:07;2.73;;;1.57;;
19257;SDS011;9763;48.780;9.212;2023-05-07T01:22:34;2.80;;;1.40;;
19257;SDS011;9763;48.780;9.212;2023-05-07T01:26:00;2.80;;;1.57;;
19257;SDS011;9763;48.780;9.212;2023-05-07T01:29:26;1.67;;;1.57;;
19257;SDS011;9763;48.780;9.212;2023-05-07T01:32:52;1.70;;;1.33;;
19257;SDS011;9763;48.780;9.212;2023-05-07T01:36:20;2.80;;;1.70;;
19257;SDS011;9763;48.780;9.212;2023-05-07T01:39:49;1.93;;;1.50;;
19257;SDS011;9763;48.780;9.212;2023-05-07T01:43:13;3.03;;;1.90;;
19257;SDS011;9763;48.780;9.212;2023-05-07T01:46:37;2.07;;;1.40;;
19257;SDS011;9763;48.780;9.212;2023-05-07T01:50:01;2.17;;;2.00;;
19257;SDS011;9763;48.780;9.212;2023-05-07T01:53:26;2.27;;;1.73;;
19257;SDS011;9763;48.780;9.212;2023-05-07T01:56:52;1.80;;;1.70;;
19257;SDS011;9763;48.780;9.212;2023-05-07T02:00:16;1.80;;;1.40;;
19257;SDS011;9763;48.780;9.212;2023-05-07T02:03:40;2.00;;;1.80;;
19257;SDS011;9763;48.780;9.212;2023-05-07T02:07:12;5.00;;;1.60;;
19257;SDS011;9763;48.780;9.212;2023-05-07T02:10:36;3.20;;;1.70;;
19257;SDS011;9763;48.780;9.212;2023-05-07T02:14:02;2.03;;;1.53;;
19257;SDS011;9763;48.780;9.212;2023-05-07T02:17:26;2.07;;;1.70;;
19257;SDS011;9763;48.780;9.212;2023-05-07T02:20:53;1.80;;;1.70;;
19257;SDS011;9763;48.780;9.212;2023-05-07T02:24:17;1.60;;;1.30;;
19257;SDS011;9763;48.780;9.212;2023-05-07T02:27:41;1.53;;;1.30;;
19257;SDS011;9763;48.780;9.212;2023-05-07T02:31:07;1.70;;;1.20;;
19257;SDS011;9763;48.780;9.212;2023-05-07T02:34:31;2.17;;;1.60;;
19257;SDS011;9763;48.780;9.212;2023-05-07T02:37:55;1.90;;;1.67;;
19257;SDS011;9763;48.780;9.212;2023-05-07T02:41:20;2.23;;;1.40;;
19257;SDS011;9763;48.780;9.212;2023-05-07T02:44:43;2.33;;;1.70;;
19257;SDS011;9763;48.780;9.212;2023-05-07T02:48:09;2.67;;;1.40;;
19257;SDS011;9763;48.780;9.212;2023-05-07T02:51:33;1.43;;;1.30;;
19257;SDS011;9763;48.780;9.212;2023-05-07T02:55:02;1.40;;;1.30;;
19257;SDS011;9763;48.780;9.212;2023-05-07T02:58:27;1.87;;;1.50;;
19257;SDS011;9763;48.780;9.212;2023-05-07T03:01:52;2.00;;;1.73;;
19257;SDS011;9763;48.780;9.212;2023-05-07T03:05:18;1.73;;;1.53;;
19257;SDS011;9763;48.780;9.212;2023-05-07T03:08:42;1.80;;;1.60;;
19257;SDS011;9763;48.780;9.212;2023-05-07T03:12:06;2.70;;;1.83;;
19257;SDS011;9763;48.780;9.212;2023-05-07T03:15:30;1.90;;;1.53;;
19257;SDS011;9763;48.780;9.212;2023-05-07T03:18:54;1.90;;;1.50;;
19257;SDS011;9763;48.780;9.212;2023-05-07T03:22:20;1.77;;;1.60;;
19257;SDS011;9763;48.780;9.212;2023-05-07T03:25:44;5.70;;;1.50;;
19257;SDS011;9763;48.780;9.212;2023-05-07T03:29:07;2.03;;;1.57;;
19257;SDS011;9763;48.780;9.212;2023-05-07T03:32:31;1.80;;;1.60;;
19257;SDS011;9763;48.780;9.212;2023-05-07T03:35:55;2.00;;;1.80;;
19257;SDS011;9763;48.780;9.212;2023-05-07T03:39:21;1.60;;;1.17;;
19257;SDS011;9763;48.780;9.212;2023-05-07T03:42:45;2.13;;;1.47;;
19257;SDS011;9763;48.780;9.212;2023-05-07T03:46:11;1.73;;;1.43;;
19257;SDS011;9763;48.780;9.212;2023-05-07T03:49:36;1.80;;;1.60;;
19257;SDS011;9763;48.780;9.212;2023-05-07T03:53:00;1.60;;;1.50;;
19257;SDS011;9763;48.780;9.212;2023-05-07T03:56:27;1.77;;;1.53;;
19257;SDS011;9763;48.780;9.212;2023-05-07T03:59:52;2.00;;;1.60;;
19257;SDS011;9763;48.780;9.212;2023-05-07T04:03:16;1.87;;;1.57;;
19257;SDS011;9763;48.780;9.212;2023-05-07T04:06:40;1.67;;;1.57;;
19257;SDS011;9763;48.780;9.212;2023-05-07T04:10:04;1.80;;;1.40;;
19257;SDS011;9763;48.780;9.212;2023-05-07T04:13:30;2.27;;;1.50;;
19257;SDS011;9763;48.780;9.212;2023-05-07T04:16:56;2.83;;;1.90;;
19257;SDS011;9763;48.780;9.212;2023-05-07T04:20:21;1.60;;;1.33;;
19257;SDS011;9763;48.780;9.212;2023-05-07T04:23:51;1.57;;;1.43;;
19257;SDS011;9763;48.780;9.212;2023-05-07T04:27:15;1.70;;;1.37;;
19257;SDS011;9763;48.780;9.212;2023-05-07T04:30:40;2.00;;;1.53;;
19257;SDS011;9763;48.780;9.212;2023-05-07T04:34:05;2.07;;;1.40;;
19257;SDS011;9763;48.780;9.212;2023-05-07T04:37:31;1.47;;;1.37;;
19257;SDS011;9763;48.780;9.212;2023-05-07T04:40:55;1.53;;;1.43;;
19257;SDS011;9763;48.780;9.212;2023-05-07T04:44:21;1.50;;;1.20;;
19257;SDS011;9763;48.780;9.212;2023-05-07T04:47:48;2.93;;;1.30;;
19257;SDS011;9763;48.780;9.212;2023-05-07T04:51:12;1.83;;;1.50;;
19257;SDS011;9763;48.780;9.212;2023-05-07T04:54:36;1.63;;;1.30;;
19257;SDS011;9763;48.780;9.212;2023-05-07T04:58:01;1.93;;;1.40;;
19257;SDS011;9763;48.780;9.212;2023-05-07T05:01:28;1.87;;;1.40;;
19257;SDS011;9763;48.780;9.212;2023-05-07T05:04:54;1.30;;;1.13;;
19257;SDS011;9763;48.780;9.212;2023-05-07T05:08:18;2.97;;;1.40;;
19257;SDS011;9763;48.780;9.212;2023-05-07T05:11:42;5.90;;;1.50;;
19257;SDS011;9763;48.780;9.212;2023-05-07T05:15:06;1.70;;;1.37;;
19257;SDS011;9763;48.780;9.212;2023-05-07T05:18:32;2.03;;;1.53;;
19257;SDS011;9763;48.780;9.212;2023-05-07T05:21:59;1.80;;;1.37;;
19257;SDS011;9763;48.780;9.212;2023-05-07T05:25:25;2.00;;;1.50;;
19257;SDS011;9763;48.780;9.212;2023-05-07T05:28:51;1.80;;;1.60;;
19257;SDS011;9763;48.780;9.212;2023-05-07T05:32:17;1.63;;;1.50;;
19257;SDS011;9763;48.780;9.212;2023-05-07T05:35:41;3.77;;;1.83;;
19257;SDS011;9763;48.780;9.212;2023-05-07T05:39:08;2.27;;;1.40;;
19257;SDS011;9763;48.780;9.212;2023-05-07T05:42:32;1.60;;;1.30;;
19257;SDS011;9763;48.780;9.212;2023-05-07T05:45:56;2.00;;;1.53;;
19257;SDS011;9763;48.780;9.212;2023-05-07T05:49:21;1.50;;;1.37;;
19257;SDS011;9763;48.780;9.212;2023-05-07T05:52:45;1.70;;;1.60;;
19257;SDS011;9763;48.780;9.212;2023-05-07T05:56:12;2.00;;;1.80;;
19257;SDS011;9763;48.780;9.212;2023-05-07T05:59:36;2.10;;;1.90;;
19257;SDS011;9763;48.780;9.212;2023-05-07T06:03:00;2.30;;;1.93;;
19257;SDS011;9763;48.780;9.212;2023-05-07T06:06:24;2.13;;;1.70;;
19257;SDS011;9763;48.780;9.212;2023-05-07T06:09:49;1.80;;;1.60;;
19257;SDS011;9763;48.780;9.212;2023-05-07T06:13:15;2.40;;;1.80;;
19257;SDS011;9763;48.780;9.212;2023-05-07T06:16:40;1.90;;;1.60;;
19257;SDS011;9763;48.780;9.212;2023-05-07T06:20:05;2.30;;;1.70;;
19257;SDS011;9763;48.780;9.212;2023-05-07T06:23:30;2.00;;;1.80;;
19257;SDS011;9763;48.780;9.212;2023-05-07T06:26:56;1.90;;;1.63;;
19257;SDS011;9763;48.780;9.212;2023-05-07T06:30:23;1.73;;;1.53;;
19257;SDS011;9763;48.780;9.212;2023-05-07T06:33:50;2.90;;;1.67;;
19257;SDS011;9763;48.780;9.212;2023-05-07T06:37:16;2.00;;;1.80;;
19257;SDS011;9763;48.780;9.212;2023-05-07T06:40:50;2.17;;;1.90;;
19257;SDS011;9763;48.780;9.212;2023-05-07T06:44:16;2.83;;;1.60;;
19257;SDS011;9763;48.780;9.212;2023-05-07T06:47:50;2.20;;;1.73;;
19257;SDS011;9763;48.780;9.212;2023-05-07T06:51:15;2.60;;;2.20;;
19257;SDS011;9763;48.780;9.212;2023-05-07T06:54:39;1.90;;;1.67;;
19257;SDS011;9763;48.780;9.212;2023-05-07T06:58:03;3.33;;;1.80;;
19257;SDS011;9763;48.780;9.212;2023-05-07T07:01:27;2.47;;;1.93;;
19257;SDS011;9763;48.780;9.212;2023-05-07T07:04:53;2.00;;;1.67;;
19257;SDS011;9763;48.780;9.212;2023-05-07T07:08:17;2.10;;;1.63;;
19257;SDS011;9763;48.780;9.212;2023-05-07T07:11:43;2.20;;;2.00;;
19257;SDS011;9763;48.780;9.212;2023-05-07T07:15:07;1.80;;;1.60;;
19257;SDS011;9763;48.780;9.212;2023-05-07T07:18:32;2.83;;;2.00;;
19257;SDS011;9763;48.780;9.212;2023-05-07T07:22:00;2.33;;;1.50;;
19257;SDS011;9763;48.780;9.212;2023-05-07T07:25:24;2.10;;;1.60;;
19257;SDS011;9763;48.780;9.212;2023-05-07T07:28:48;1.93;;;1.73;;
19257;SDS011;9763;48.780;9.212;2023-05-07T07:32:15;1.93;;;1.57;;
19257;SDS011;9763;48.780;9.212;2023-05-07T07:35:39;2.97;;;1.90;;
19257;SDS011;9763;48.780;9.212;2023-05-07T07:39:05;2.63;;;1.70;;
19257;SDS011;9763;48.780;9.212;2023-05-07T07:42:31;1.70;;;1.60;;
19257;SDS011;9763;48.780;9.212;2023-05-07T07:45:56;1.70;;;1.40;;
19257;SDS011;9763;48.780;9.212;2023-05-07T07:49:21;1.83;;;1.30;;
19257;SDS011;9763;48.780;9.212;2023-05-07T07:52:45;1.60;;;1.37;;
19257;SDS011;9763;48.780;9.212;2023-05-07T07:56:13;1.60;;;1.20;;
19257;SDS011;9763;48.780;9.212;2023-05-07T07:59:37;2.00;;;1.13;;
19257;SDS011;9763;48.780;9.212;2023-05-07T08:03:03;1.70;;;1.20;;
19257;SDS011;9763;48.780;9.212;2023-05-07T08:06:32;1.70;;;1.10;;
19257;SDS011;9763;48.780;9.212;2023-05-07T08:09:56;2.20;;;1.10;;
19257;SDS011;9763;48.780;9.212;2023-05-07T08:13:22;2.50;;;1.20;;
19257;SDS011;9763;48.780;9.212;2023-05-07T08:16:46;2.00;;;1.23;;
19257;SDS011;9763;48.780;9.212;2023-05-07T08:20:10;1.40;;;1.00;;
19257;SDS011;9763;48.780;9.212;2023-05-07T08:23:34;1.90;;;1.20;;
19257;SDS011;9763;48.780;9.212;2023-05-07T08:26:59;1.60;;;1.13;;
19257;SDS011;9763;48.780;9.212;2023-05-07T08:30:24;1.67;;;1.20;;
19257;SDS011;9763;48.780;9.212;2023-05-07T08:33:49;1.50;;;1.20;;
19257;SDS011;9763;48.780;9.212;2023-05-07T08:37:13;1.63;;;1.23;;
19257;SDS011;9763;48.780;9.212;2023-05-07T08:40:38;1.67;;;1.10;;
19257;SDS011;9763;48.780;9.212;2023-05-07T08:44:07;1.90;;;1.33;;
19257;SDS011;9763;48.780;9.212;2023-05-07T08:47:43;1.37;;;1.00;;
19257;SDS011;9763;48.780;9.212;2023-05-07T08:51:14;2.03;;;1.30;;
19257;SDS011;9763;48.780;9.212;2023-05-07T08:54:40;2.23;;;1.30;;
19257;SDS011;9763;48.780;9.212;2023-05-07T08:58:05;1.70;;;1.30;;
19257;SDS011;9763;48.780;9.212;2023-05-07T09:01:33;1.50;;;1.00;;
19257;SDS011;9763;48.780;9.212;2023-05-07T09:04:59;2.50;;;1.13;;
19257;SDS011;9763;48.780;9.212;2023-05-07T09:08:24;1.90;;;1.20;;
19257;SDS011;9763;48.780;9.212;2023-05-07T09:11:56;1.70;;;1.07;;
19257;SDS011;9763;48.780;9.212;2023-05-07T09:15:23;1.40;;;1.10;;
19257;SDS011;9763;48.780;9.212;2023-05-07T09:18:50;1.90;;;1.20;;
19257;SDS011;9763;48.780;9.212;2023-05-07T09:22:17;1.50;;;1.10;;
19257;SDS011;9763;48.780;9.212;2023-05-07T09:25:55;1.40;;;0.90;;
19257;SDS011;9763;48.780;9.212;2023-05-07T09:29:27;1.73;;;1.17;;
19257;SDS011;9763;48.780;9.212;2023-05-07T09:32:52;1.70;;;1.00;;
19257;SDS011;9763;48.780;9.212;2023-05-07T09:36:18;1.40;;;1.03;;
19257;SDS011;9763;48.780;9.212;2023-05-07T09:39:45;1.87;;;0.93;;
19257;SDS011;9763;48.780;9.212;2023-05-07T09:43:12;1.40;;;1.10;;
19257;SDS011;9763;48.780;9.212;2023-05-07T09:46:43;1.30;;;0.93;;
19257;SDS011;9763;48.780;9.212;2023-05-07T09:50:15;1.40;;;1.00;;
19257;SDS011;9763;48.780;9.212;2023-05-07T09:53:42;1.80;;;1.10;;
19257;SDS011;9763;48.780;9.212;2023-05-07T09:57:10;1.80;;;1.00;;
19257;SDS011;9763;48.780;9.212;2023-05-07T10:00:39;1.40;;;0.90;;
19257;SDS011;9763;48.780;9.212;2023-05-07T10:04:08;1.40;;;0.87;;
19257;SDS011;9763;48.780;9.212;2023-05-07T10:07:33;1.50;;;1.10;;
19257;SDS011;9763;48.780;9.212;2023-05-07T10:11:01;2.73;;;1.07;;
19257;SDS011;9763;48.780;9.212;2023-05-07T10:14:28;1.70;;;1.00;;
19257;SDS011;9763;48.780;9.212;2023-05-07T10:17:52;1.77;;;0.90;;
19257;SDS011;9763;48.780;9.212;2023-05-07T10:21:19;1.37;;;1.00;;
19257;SDS011;9763;48.780;9.212;2023-05-07T10:24:50;1.30;;;0.93;;
19257;SDS011;9763;48.780;9.212;2023-05-07T10:28:17;2.13;;;1.17;;
19257;SDS011;9763;48.780;9.212;2023-05-07T10:31:48;1.50;;;1.00;;
19257;SDS011;9763;48.780;9.212;2023-05-07T10:35:20;2.03;;;1.20;;
19257;SDS011;9763;48.780;9.212;2023-05-07T10:38:46;1.93;;;1.10;;
19257;SDS011;9763;48.780;9.212;2023-05-07T10:42:12;1.63;;;1.10;;
19257;SDS011;9763;48.780;9.212;2023-05-07T10:45:43;1.50;;;1.10;;
19257;SDS011;9763;48.780;9.212;2023-05-07T10:49:25;1.50;;;1.07;;
19257;SDS011;9763;48.780;9.212;2023-05-07T11:01:17;1.70;;;1.10;;
19257;SDS011;9763;48.780;9.212;2023-05-07T11:05:19;1.70;;;1.03;;
19257;SDS011;9763;48.780;9.212;2023-05-07T11:08:59;1.70;;;1.10;;
19257;SDS011;9763;48.780;9.212;2023-05-07T11:12:49;2.30;;;1.20;;
19257;SDS011;9763;48.780;9.212;2023-05-07T11:16:23;1.70;;;1.13;;
19257;SDS011;9763;48.780;9.212;2023-05-07T11:20:05;1.53;;;0.97;;
19257;SDS011;9763;48.780;9.212;2023-05-07T11:23:57;1.83;;;1.10;;
19257;SDS011;9763;48.780;9.212;2023-05-07T11:27:28;1.30;;;0.80;;
19257;SDS011;9763;48.780;9.212;2023-05-07T11:30:52;1.40;;;1.00;;
19257;SDS011;9763;48.780;9.212;2023-05-07T11:34:20;1.90;;;1.07;;
19257;SDS011;9763;48.780;9.212;2023-05-07T11:37:46;1.60;;;1.00;;
19257;SDS011;9763;48.780;9.212;2023-05-07T11:41:13;1.40;;;1.07;;
19257;SDS011;9763;48.780;9.212;2023-05-07T11:44:42;1.67;;;1.07;;
19257;SDS011;9763;48.780;9.212;2023-05-07T11:48:08;1.60;;;1.10;;
19257;SDS011;9763;48.780;9.212;2023-05-07T11:51:32;1.60;;;0.90;;
19257;SDS011;9763;48.780;9.212;2023-05-07T11:54:57;1.40;;;0.97;;
19257;SDS011;9763;48.780;9.212;2023-05-07T11:58:24;1.50;;;1.00;;
19257;SDS011;9763;48.780;9.212;2023-05-07T12:01:48;1.40;;;1.00;;
19257;SDS011;9763;48.780;9.212;2023-05-07T12:05:11;1.60;;;1.07;;
19257;SDS011;9763;48.780;9.212;2023-05-07T12:08:36;1.53;;;1.00;;
19257;SDS011;9763;48.780;9.212;2023-05-07T12:12:03;1.60;;;1.07;;
19257;SDS011;9763;48.780;9.212;2023-05-07T12:15:28;2.00;;;0.87;;
19257;SDS011;9763;48.780;9.212;2023-05-07T12:18:52;1.70;;;1.20;;
19257;SDS011;9763;48.780;9.212;2023-05-07T12:22:17;1.70;;;1.03;;
19257;SDS011;9763;48.780;9.212;2023-05-07T12:25:41;2.77;;;1.57;;
19257;SDS011;9763;48.780;9.212;2023-05-07T12:29:08;1.80;;;1.20;;
19257;SDS011;9763;48.780;9.212;2023-05-07T12:32:34;3.70;;;1.43;;
19257;SDS011;9763;48.780;9.212;2023-05-07T12:36:02;1.70;;;0.97;;
19257;SDS011;9763;48.780;9.212;2023-05-07T12:39:28;1.87;;;1.40;;
19257;SDS011;9763;48.780;9.212;2023-05-07T12:42:52;2.27;;;1.53;;
19257;SDS011;9763;48.780;9.212;2023-05-07T12:46:19;3.00;;;1.50;;
19257;SDS011;9763;48.780;9.212;2023-05-07T12:49:46;2.20;;;1.53;;
19257;SDS011;9763;48.780;9.212;2023-05-07T12:53:11;3.30;;;1.80;;
19257;SDS011;9763;48.780;9.212;2023-05-07T12:56:36;3.07;;;1.70;;
19257;SDS011;9763;48.780;9.212;2023-05-07T13:00:00;2.90;;;1.67;;
19257;SDS011;9763;48.780;9.212;2023-05-07T13:03:26;2.10;;;1.40;;
19257;SDS011;9763;48.780;9.212;2023-05-07T13:06:52;1.80;;;1.20;;
19257;SDS011;9763;48.780;9.212;2023-05-07T13:10:16;1.87;;;1.20;;
19257;SDS011;9763;48.780;9.212;2023-05-07T13:13:40;1.90;;;1.20;;
19257;SDS011;9763;48.780;9.212;2023-05-07T13:17:04;2.57;;;1.30;;
19257;SDS011;9763;48.780;9.212;2023-05-07T13:20:28;3.93;;;1.57;;
19257;SDS011;9763;48.780;9.212;2023-05-07T13:23:54;1.40;;;1.10;;
19257;SDS011;9763;48.780;9.212;2023-05-07T13:27:17;1.80;;;1.33;;
19257;SDS011;9763;48.780;9.212;2023-05-07T13:30:42;1.60;;;1.00;;
19257;SDS011;9763;48.780;9.212;2023-05-07T13:34:06;1.57;;;1.17;;
19257;SDS011;9763;48.780;9.212;2023-05-07T13:37:30;1.60;;;1.13;;
19257;SDS011;9763;48.780;9.212;2023-05-07T13:40:55;1.23;;;0.93;;
19257;SDS011;9763;48.780;9.212;2023-05-07T13:44:19;1.30;;;0.70;;
19257;SDS011;9763;48.780;9.212;2023-05-07T13:47:43;1.30;;;0.70;;
19257;SDS011;9763;48.780;9.212;2023-05-07T13:51:07;2.00;;;1.40;;
19257;SDS011;9763;48.780;9.212;2023-05-07T13:54:31;4.07;;;0.90;;
19257;SDS011;9763;48.780;9.212;2023-05-07T13:57:57;1.50;;;1.00;;
19257;SDS011;9763;48.780;9.212;2023-05-07T14:01:22;1.27;;;0.90;;
19257;SDS011;9763;48.780;9.212;2023-05-07T14:04:46;1.83;;;0.90;;
19257;SDS011;9763;48.780;9.212;2023-05-07T14:08:09;1.30;;;0.80;;
19257;SDS011;9763;48.780;9.212;2023-05-07T14:11:35;1.27;;;0.90;;
19257;SDS011;9763;48.780;9.212;2023-05-07T14:15:00;2.03;;;1.10;;
19257;SDS011;9763;48.780;9.212;2023-05-07T14:18:24;1.60;;;1.10;;
19257;SDS011;9763;48.780;9.212;2023-05-07T14:21:48;3.67;;;1.10;;
19257;SDS011;9763;48.780;9.212;2023-05-07T14:25:11;1.60;;;1.20;;
19257;SDS011;9763;48.780;9.212;2023-05-07T14:28:38;1.40;;;1.20;;
19257;SDS011;9763;48.780;9.212;2023-05-07T14:32:05;2.63;;;1.33;;
19257;SDS011;9763;48.780;9.212;2023-05-07T14:35:29;1.30;;;1.03;;
19257;SDS011;9763;48.780;9.212;2023-05-07T14:38:53;1.40;;;1.10;;
19257;SDS011;9763;48.780;9.212;2023-05-07T14:42:18;1.30;;;1.00;;
19257;SDS011;9763;48.780;9.212;2023-05-07T14:45:42;1.30;;;1.00;;
19257;SDS011;9763;48.780;9.212;2023-05-07T14:49:07;2.03;;;1.30;;
19257;SDS011;9763;48.780;9.212;2023-05-07T14:52:38;1.30;;;0.90;;
19257;SDS011;9763;48.780;9.212;2023-05-07T14:56:02;1.23;;;0.90;;
19257;SDS011;9763;48.780;9.212;2023-05-07T14:59:26;1.20;;;0.83;;
19257;SDS011;9763;48.780;9.212;2023-05-07T15:02:50;1.20;;;0.87;;
19257;SDS011;9763;48.780;9.212;2023-05-07T15:06:15;1.20;;;0.80;;
19257;SDS011;9763;48.780;9.212;2023-05-07T15:09:39;1.20;;;0.80;;
19257;SDS011;9763;48.780;9.212;2023-05-07T15:13:03;2.30;;;1.10;;
19257;SDS011;9763;48.780;9.212;2023-05-07T15:16:27;1.33;;;1.07;;
19257;SDS011;9763;48.780;9.212;2023-05-07T15:19:51;1.40;;;1.30;;
19257;SDS011;9763;48.780;9.212;2023-05-07T15:23:16;1.40;;;1.10;;
19257;SDS011;9763;48.780;9.212;2023-05-07T15:26:42;1.67;;;1.20;;
19257;SDS011;9763;48.780;9.212;2023-05-07T15:30:07;1.90;;;1.47;;
19257;SDS011;9763;48.780;9.212;2023-05-07T15:33:32;1.60;;;1.43;;
19257;SDS011;9763;48.780;9.212;2023-05-07T15:36:56;2.67;;;1.43;;
19257;SDS011;9763;48.780;9.212;2023-05-07T15:40:21;2.67;;;1.40;;
19257;SDS011;9763;48.780;9.212;2023-05-07T15:43:46;2.00;;;1.37;;
19257;SDS011;9763;48.780;9.212;2023-05-07T15:47:12;1.53;;;1.30;;
19257;SDS011;9763;48.780;9.212;2023-05-07T15:50:37;1.70;;;1.33;;
19257;SDS011;9763;48.780;9.212;2023-05-07T15:54:01;2.10;;;1.23;;
19257;SDS011;9763;48.780;9.212;2023-05-07T15:57:27;1.40;;;1.30;;
19257;SDS011;9763;48.780;9.212;2023-05-07T16:00:50;1.60;;;1.40;;
19257;SDS011;9763;48.780;9.212;2023-05-07T16:04:14;1.40;;;1.23;;
19257;SDS011;9763;48.780;9.212;2023-05-07T16:07:38;2.37;;;1.60;;
19257;SDS011;9763;48.780;9.212;2023-05-07T16:11:04;1.90;;;1.70;;
19257;SDS011;9763;48.780;9.212;2023-05-07T16:14:30;2.10;;;1.50;;
19257;SDS011;9763;48.780;9.212;2023-05-07T16:17:54;2.33;;;1.50;;
19257;SDS011;9763;48.780;9.212;2023-05-07T16:21:19;1.90;;;1.50;;
19257;SDS011;9763;48.780;9.212;2023-05-07T16:24:42;2.27;;;1.60;;
19257;SDS011;9763;48.780;9.212;2023-05-07T16:28:06;2.07;;;1.87;;
19257;SDS011;9763;48.780;9.212;2023-05-07T16:31:32;1.90;;;1.53;;
19257;SDS011;9763;48.780;9.212;2023-05-07T16:34:56;2.90;;;2.23;;
19257;SDS011;9763;48.780;9.212;2023-05-07T16:38:20;1.77;;;1.53;;
19257;SDS011;9763;48.780;9.212;2023-05-07T16:41:44;1.93;;;1.73;;
19257;SDS011;9763;48.780;9.212;2023-05-07T16:45:09;3.70;;;1.73;;
19257;SDS011;9763;48.780;9.212;2023-05-07T16:48:35;2.23;;;1.60;;
19257;SDS011;9763;48.780;9.212;2023-05-07T16:51:59;2.20;;;1.70;;
19257;SDS011;9763;48.780;9.212;2023-05-07T16:55:23;1.80;;;1.53;;
19257;SDS011;9763;48.780;9.212;2023-05-07T16:58:47;4.30;;;2.30;;
19257;SDS011;9763;48.780;9.212;2023-05-07T17:02:11;1.57;;;1.40;;
19257;SDS011;9763;48.780;9.212;2023-05-07T17:05:36;1.77;;;1.67;;
19257;SDS011;9763;48.780;9.212;2023-05-07T17:09:01;2.00;;;1.67;;
19257;SDS011;9763;48.780;9.212;2023-05-07T17:12:25;1.77;;;1.67;;
19257;SDS011;9763;48.780;9.212;2023-05-07T17:15:49;2.17;;;1.97;;
19257;SDS011;9763;48.780;9.212;2023-05-07T17:19:13;1.97;;;1.77;;
19257;SDS011;9763;48.780;9.212;2023-05-07T17:22:38;2.07;;;1.83;;
19257;SDS011;9763;48.780;9.212;2023-05-07T17:26:02;2.10;;;1.90;;
19257;SDS011;9763;48.780;9.212;2023-05-07T17:29:32;2.93;;;2.10;;
19257;SDS011;9763;48.780;9.212;2023-05-07T17:32:56;2.03;;;1.83;;
19257;SDS011;9763;48.780;9.212;2023-05-07T17:36:37;2.33;;;2.00;;
19257;SDS011;9763;48.780;9.212;2023-05-07T17:40:03;2.10;;;1.87;;
19257;SDS011;9763;48.780;9.212;2023-05-07T17:43:28;2.27;;;2.07;;
19257;SDS011;9763;48.780;9.212;2023-05-07T17:46:51;1.83;;;1.63;;
19257;SDS011;9763;48.780;9.212;2023-05-07T17:50:16;1.70;;;1.60;;
19257;SDS011;9763;48.780;9.212;2023-05-07T17:53:42;2.40;;;1.67;;
19257;SDS011;9763;48.780;9.212;2023-05-07T17:57:07;1.70;;;1.60;;
19257;SDS011;9763;48.780;9.212;2023-05-07T18:00:31;4.33;;;1.83;;
19257;SDS011;9763;48.780;9.212;2023-05-07T18:03:55;2.03;;;1.87;;
19257;SDS011;9763;48.780;9.212;2023-05-07T18:07:20;2.10;;;1.83;;
19257;SDS011;9763;48.780;9.212;2023-05-07T18:10:44;1.70;;;1.40;;
19257;SDS011;9763;48.780;9.212;2023-05-07T18:14:09;1.67;;;1.57;;
19257;SDS011;9763;48.780;9.212;2023-05-07T18:17:33;1.60;;;1.43;;
19257;SDS011;9763;48.780;9.212;2023-05-07T18:20:57;1.60;;;1.50;;
19257;SDS011;9763;48.780;9.212;2023-05-07T18:24:21;2.00;;;1.60;;
19257;SDS011;9763;48.780;9.212;2023-05-07T18:27:45;1.70;;;1.60;;
19257;SDS011;9763;48.780;9.212;2023-05-07T18:31:11;1.67;;;1.57;;
19257;SDS011;9763;48.780;9.212;2023-05-07T18:34:35;1.60;;;1.50;;
19257;SDS011;9763;48.780;9.212;2023-05-07T18:37:59;1.60;;;1.50;;
19257;SDS011;9763;48.780;9.212;2023-05-07T18:41:23;2.00;;;1.50;;
19257;SDS011;9763;48.780;9.212;2023-05-07T18:44:47;1.80;;;1.60;;
19257;SDS011;9763;48.780;9.212;2023-05-07T18:48:13;2.00;;;1.60;;
19257;SDS011;9763;48.780;9.212;2023-05-07T18:51:37;2.07;;;1.53;;
19257;SDS011;9763;48.780;9.212;2023-05-07T18:55:01;1.50;;;1.23;;
19257;SDS011;9763;48.780;9.212;2023-05-07T18:58:25;1.70;;;1.40;;
19257;SDS011;9763;48.780;9.212;2023-05-07T19:01:49;1.83;;;1.57;;
19257;SDS011;9763;48.780;9.212;2023-05-07T19:05:15;1.87;;;1.40;;
19257;SDS011;9763;48.780;9.212;2023-05-07T19:08:39;1.60;;;1.50;;
19257;SDS011;9763;48.780;9.212;2023-05-07T19:12:03;4.17;;;1.50;;
19257;SDS011;9763;48.780;9.212;2023-05-07T19:15:28;1.50;;;1.30;;
19257;SDS011;9763;48.780;9.212;2023-05-07T19:18:52;1.47;;;1.30;;
19257;SDS011;9763;48.780;9.212;2023-05-07T19:22:17;1.53;;;1.40;;
19257;SDS011;9763;48.780;9.212;2023-05-07T19:25:42;1.80;;;1.47;;
19257;SDS011;9763;48.780;9.212;2023-05-07T19:29:06;1.80;;;1.70;;
19257;SDS011;9763;48.780;9.212;2023-05-07T19:32:38;1.53;;;1.43;;
19257;SDS011;9763;48.780;9.212;2023-05-07T19:36:02;1.67;;;1.50;;
19257;SDS011;9763;48.780;9.212;2023-05-07T19:39:28;1.70;;;1.50;;
19257;SDS011;9763;48.780;9.212;2023-05-07T19:42:52;1.87;;;1.60;;
19257;SDS011;9763;48.780;9.212;2023-05-07T19:46:15;2.00;;;1.80;;
19257;SDS011;9763;48.780;9.212;2023-05-07T19:49:39;2.20;;;2.00;;
19257;SDS011;9763;48.780;9.212;2023-05-07T19:53:03;2.20;;;1.70;;
19257;SDS011;9763;48.780;9.212;2023-05-07T19:56:29;2.10;;;1.67;;
19257;SDS011;9763;48.780;9.212;2023-05-07T19:59:53;1.70;;;1.60;;
19257;SDS011;9763;48.780;9.212;2023-05-07T20:03:17;2.27;;;1.63;;
19257;SDS011;9763;48.780;9.212;2023-05-07T20:06:41;2.00;;;1.70;;
19257;SDS011;9763;48.780;9.212;2023-05-07T20:10:05;1.83;;;1.67;;
19257;SDS011;9763;48.780;9.212;2023-05-07T20:13:31;2.07;;;1.40;;
19257;SDS011;9763;48.780;9.212;2023-05-07T20:16:55;2.00;;;1.80;;
19257;SDS011;9763;48.780;9.212;2023-05-07T20:20:19;2.20;;;1.70;;
19257;SDS011;9763;48.780;9.212;2023-05-07T20:23:45;1.63;;;1.53;;
19257;SDS011;9763;48.780;9.212;2023-05-07T20:27:09;1.47;;;1.37;;
19257;SDS011;9763;48.780;9.212;2023-05-07T20:30:34;1.77;;;1.30;;
19257;SDS011;9763;48.780;9.212;2023-05-07T20:33:58;1.90;;;1.80;;
19257;SDS011;9763;48.780;9.212;2023-05-07T20:37:22;1.47;;;1.37;;
19257;SDS011;9763;48.780;9.212;2023-05-07T20:40:46;1.60;;;1.40;;
19257;SDS011;9763;48.780;9.212;2023-05-07T20:44:10;1.77;;;1.67;;
19257;SDS011;9763;48.780;9.212;2023-05-07T20:47:36;1.80;;;1.67;;
19257;SDS011;9763;48.780;9.212;2023-05-07T20:51:00;2.97;;;1.70;;
19257;SDS011;9763;48.780;9.212;2023-05-07T20:54:24;1.70;;;1.60;;
19257;SDS011;9763;48.780;9.212;2023-05-07T20:57:49;2.40;;;2.00;;
19257;SDS011;9763;48.780;9.212;2023-05-07T21:01:13;2.37;;;2.17;;
19257;SDS011;9763;48.780;9.212;2023-05-07T21:04:38;2.00;;;1.90;;